sensor_id;sensor_type;location;lat;lon;timestamp;P1;durP1;ratioP1;P2;durP2;ratioP2
17949;SDS011;9100;48.700;9.316;2023-01-28T00:00:34;7.9;;;7.1;;
17949;SDS011;9100;48.700;9.316;2023-01-28T00:00:57;7.9;;;7.1;;
17949;SDS011;9100;48.700;9.316;2023-01-28T00:01:57;7.9;;;7.1;;
17949;SDS011;9100;48.700;9.316;2023-01-28T00:02:59;7.9;;;7.1;;
17949;SDS011;9100;48.700;9.316;2023-01-28T00:03:57;7.9;;;7.1;;
17949;SDS011;9100;48.700;9.316;2023-01-28T00:04:57;7.9;;;7.1;;
17949;SDS011;9100;48.700;9.316;2023-01-28T00:05:34;7.6;;;6.8;;
17949;SDS011;9100;48.700;9.316;2023-01-28T00:06:00;7.6;;;6.8;;
17949;SDS011;9100;48.700;9.316;2023-01-28T00:06:57;7.6;;;6.8;;
17949;SDS011;9100;48.700;9.316;2023-01-28T00:07:57;7.6;;;6.8;;
17949;SDS011;9100;48.700;9.316;2023-01-28T00:08:57;7.6;;;6.8;;
17949;SDS011;9100;48.700;9.316;2023-01-28T00:09:57;7.6;;;6.8;;
17949;SDS011;9100;48.700;9.316;2023-01-28T00:10:35;8.5;;;6.7;;
17949;SDS011;9100;48.700;9.316;2023-01-28T00:10:58;8.5;;;6.7;;
17949;SDS011;9100;48.700;9.316;2023-01-28T00:11:57;8.5;;;6.7;;
17949;SDS011;9100;48.700;9.316;2023-01-28T00:12:56;8.5;;;6.7;;
17949;SDS011;9100;48.700;9.316;2023-01-28T00:13:56;8.5;;;6.7;;
17949;SDS011;9100;48.700;9.316;2023-01-28T00:14:57;8.5;;;6.7;;
17949;SDS011;9100;48.700;9.316;2023-01-28T00:15:35;7.3;;;6;;
17949;SDS011;9100;48.700;9.316;2023-01-28T00:15:57;7.3;;;6;;
17949;SDS011;9100;48.700;9.316;2023-01-28T00:16:58;7.3;;;6;;
17949;SDS011;9100;48.700;9.316;2023-01-28T00:17:57;7.3;;;6;;
17949;SDS011;9100;48.700;9.316;2023-01-28T00:18:57;7.3;;;6;;
17949;SDS011;9100;48.700;9.316;2023-01-28T00:19:57;7.3;;;6;;
17949;SDS011;9100;48.700;9.316;2023-01-28T00:20:35;6.7;;;6.2;;
17949;SDS011;9100;48.700;9.316;2023-01-28T00:20:58;6.7;;;6.2;;
17949;SDS011;9100;48.700;9.316;2023-01-28T00:21:57;6.7;;;6.2;;
17949;SDS011;9100;48.700;9.316;2023-01-28T00:22:57;6.7;;;6.2;;
17949;SDS011;9100;48.700;9.316;2023-01-28T00:23:57;6.7;;;6.2;;
17949;SDS011;9100;48.700;9.316;2023-01-28T00:24:56;6.7;;;6.2;;
17949;SDS011;9100;48.700;9.316;2023-01-28T00:25:34;6.5;;;5.9;;
17949;SDS011;9100;48.700;9.316;2023-01-28T00:25:57;6.5;;;5.9;;
17949;SDS011;9100;48.700;9.316;2023-01-28T00:26:57;6.5;;;5.9;;
17949;SDS011;9100;48.700;9.316;2023-01-28T00:27:58;6.5;;;5.9;;
17949;SDS011;9100;48.700;9.316;2023-01-28T00:28:57;6.5;;;5.9;;
17949;SDS011;9100;48.700;9.316;2023-01-28T00:29:57;6.5;;;5.9;;
17949;SDS011;9100;48.700;9.316;2023-01-28T00:30:34;7.2;;;6.5;;
17949;SDS011;9100;48.700;9.316;2023-01-28T00:30:57;7.2;;;6.5;;
17949;SDS011;9100;48.700;9.316;2023-01-28T00:31:57;7.2;;;6.5;;
17949;SDS011;9100;48.700;9.316;2023-01-28T00:32:57;7.2;;;6.5;;
17949;SDS011;9100;48.700;9.316;2023-01-28T00:33:57;7.2;;;6.5;;
17949;SDS011;9100;48.700;9.316;2023-01-28T00:34:57;7.2;;;6.5;;
17949;SDS011;9100;48.700;9.316;2023-01-28T00:35:34;6.7;;;6.1;;
17949;SDS011;9100;48.700;9.316;2023-01-28T00:35:58;6.7;;;6.1;;
17949;SDS011;9100;48.700;9.316;2023-01-28T00:36:57;6.7;;;6.1;;
17949;SDS011;9100;48.700;9.316;2023-01-28T00:37:56;6.7;;;6.1;;
17949;SDS011;9100;48.700;9.316;2023-01-28T00:38:57;6.7;;;6.1;;
17949;SDS011;9100;48.700;9.316;2023-01-28T00:39:56;6.7;;;6.1;;
17949;SDS011;9100;48.700;9.316;2023-01-28T00:40:35;9.2;;;6.3;;
17949;SDS011;9100;48.700;9.316;2023-01-28T00:41:05;9.2;;;6.3;;
17949;SDS011;9100;48.700;9.316;2023-01-28T00:41:57;9.2;;;6.3;;
17949;SDS011;9100;48.700;9.316;2023-01-28T00:42:57;9.2;;;6.3;;
17949;SDS011;9100;48.700;9.316;2023-01-28T00:43:57;9.2;;;6.3;;
17949;SDS011;9100;48.700;9.316;2023-01-28T00:44:57;9.2;;;6.3;;
17949;SDS011;9100;48.700;9.316;2023-01-28T00:45:34;7;;;6.3;;
17949;SDS011;9100;48.700;9.316;2023-01-28T00:45:57;7;;;6.3;;
17949;SDS011;9100;48.700;9.316;2023-01-28T00:46:57;7;;;6.3;;
17949;SDS011;9100;48.700;9.316;2023-01-28T00:47:57;7;;;6.3;;
17949;SDS011;9100;48.700;9.316;2023-01-28T00:48:57;7;;;6.3;;
17949;SDS011;9100;48.700;9.316;2023-01-28T00:49:57;7;;;6.3;;
17949;SDS011;9100;48.700;9.316;2023-01-28T00:50:35;6.9;;;6.3;;
17949;SDS011;9100;48.700;9.316;2023-01-28T00:50:57;6.9;;;6.3;;
17949;SDS011;9100;48.700;9.316;2023-01-28T00:51:57;6.9;;;6.3;;
17949;SDS011;9100;48.700;9.316;2023-01-28T00:52:57;6.9;;;6.3;;
17949;SDS011;9100;48.700;9.316;2023-01-28T00:53:57;6.9;;;6.3;;
17949;SDS011;9100;48.700;9.316;2023-01-28T00:54:57;6.9;;;6.3;;
17949;SDS011;9100;48.700;9.316;2023-01-28T00:55:34;6;;;5.5;;
17949;SDS011;9100;48.700;9.316;2023-01-28T00:55:57;6;;;5.5;;
17949;SDS011;9100;48.700;9.316;2023-01-28T00:56:57;6;;;5.5;;
17949;SDS011;9100;48.700;9.316;2023-01-28T00:57:57;6;;;5.5;;
17949;SDS011;9100;48.700;9.316;2023-01-28T00:58:57;6;;;5.5;;
17949;SDS011;9100;48.700;9.316;2023-01-28T00:59:57;6;;;5.5;;
17949;SDS011;9100;48.700;9.316;2023-01-28T01:00:35;5.3;;;4.9;;
17949;SDS011;9100;48.700;9.316;2023-01-28T01:01:04;5.3;;;4.9;;
17949;SDS011;9100;48.700;9.316;2023-01-28T01:01:57;5.3;;;4.9;;
17949;SDS011;9100;48.700;9.316;2023-01-28T01:02:57;5.3;;;4.9;;
17949;SDS011;9100;48.700;9.316;2023-01-28T01:03:57;5.3;;;4.9;;
17949;SDS011;9100;48.700;9.316;2023-01-28T01:04:57;5.3;;;4.9;;
17949;SDS011;9100;48.700;9.316;2023-01-28T01:05:34;6.1;;;5.5;;
17949;SDS011;9100;48.700;9.316;2023-01-28T01:05:57;6.1;;;5.5;;
17949;SDS011;9100;48.700;9.316;2023-01-28T01:06:57;6.1;;;5.5;;
17949;SDS011;9100;48.700;9.316;2023-01-28T01:07:57;6.1;;;5.5;;
17949;SDS011;9100;48.700;9.316;2023-01-28T01:08:57;6.1;;;5.5;;
17949;SDS011;9100;48.700;9.316;2023-01-28T01:09:57;6.1;;;5.5;;
17949;SDS011;9100;48.700;9.316;2023-01-28T01:10:34;6.3;;;5.7;;
17949;SDS011;9100;48.700;9.316;2023-01-28T01:10:58;6.3;;;5.7;;
17949;SDS011;9100;48.700;9.316;2023-01-28T01:11:58;6.3;;;5.7;;
17949;SDS011;9100;48.700;9.316;2023-01-28T01:12:58;6.3;;;5.7;;
17949;SDS011;9100;48.700;9.316;2023-01-28T01:13:59;6.3;;;5.7;;
17949;SDS011;9100;48.700;9.316;2023-01-28T01:14:57;6.3;;;5.7;;
17949;SDS011;9100;48.700;9.316;2023-01-28T01:15:34;7.1;;;5.2;;
17949;SDS011;9100;48.700;9.316;2023-01-28T01:16:00;7.1;;;5.2;;
17949;SDS011;9100;48.700;9.316;2023-01-28T01:16:57;7.1;;;5.2;;
17949;SDS011;9100;48.700;9.316;2023-01-28T01:17:57;7.1;;;5.2;;
17949;SDS011;9100;48.700;9.316;2023-01-28T01:18:57;7.1;;;5.2;;
17949;SDS011;9100;48.700;9.316;2023-01-28T01:19:57;7.1;;;5.2;;
17949;SDS011;9100;48.700;9.316;2023-01-28T01:20:35;5.9;;;5.1;;
17949;SDS011;9100;48.700;9.316;2023-01-28T01:20:57;5.9;;;5.1;;
17949;SDS011;9100;48.700;9.316;2023-01-28T01:21:57;5.9;;;5.1;;
17949;SDS011;9100;48.700;9.316;2023-01-28T01:22:56;5.9;;;5.1;;
17949;SDS011;9100;48.700;9.316;2023-01-28T01:23:56;5.9;;;5.1;;
17949;SDS011;9100;48.700;9.316;2023-01-28T01:24:56;5.9;;;5.1;;
17949;SDS011;9100;48.700;9.316;2023-01-28T01:25:34;5.7;;;5.2;;
17949;SDS011;9100;48.700;9.316;2023-01-28T01:25:57;5.7;;;5.2;;
17949;SDS011;9100;48.700;9.316;2023-01-28T01:26:56;5.7;;;5.2;;
17949;SDS011;9100;48.700;9.316;2023-01-28T01:27:57;5.7;;;5.2;;
17949;SDS011;9100;48.700;9.316;2023-01-28T01:28:57;5.7;;;5.2;;
17949;SDS011;9100;48.700;9.316;2023-01-28T01:29:57;5.7;;;5.2;;
17949;SDS011;9100;48.700;9.316;2023-01-28T01:30:34;6;;;5.4;;
17949;SDS011;9100;48.700;9.316;2023-01-28T01:30:58;6;;;5.4;;
17949;SDS011;9100;48.700;9.316;2023-01-28T01:31:57;6;;;5.4;;
17949;SDS011;9100;48.700;9.316;2023-01-28T01:32:57;6;;;5.4;;
17949;SDS011;9100;48.700;9.316;2023-01-28T01:33:57;6;;;5.4;;
17949;SDS011;9100;48.700;9.316;2023-01-28T01:34:57;6;;;5.4;;
17949;SDS011;9100;48.700;9.316;2023-01-28T01:35:34;5.7;;;5.2;;
17949;SDS011;9100;48.700;9.316;2023-01-28T01:35:57;5.7;;;5.2;;
17949;SDS011;9100;48.700;9.316;2023-01-28T01:36:57;5.7;;;5.2;;
17949;SDS011;9100;48.700;9.316;2023-01-28T01:37:57;5.7;;;5.2;;
17949;SDS011;9100;48.700;9.316;2023-01-28T01:38:57;5.7;;;5.2;;
17949;SDS011;9100;48.700;9.316;2023-01-28T01:39:57;5.7;;;5.2;;
17949;SDS011;9100;48.700;9.316;2023-01-28T01:40:34;5.4;;;5;;
17949;SDS011;9100;48.700;9.316;2023-01-28T01:40:58;5.4;;;5;;
17949;SDS011;9100;48.700;9.316;2023-01-28T01:41:57;5.4;;;5;;
17949;SDS011;9100;48.700;9.316;2023-01-28T01:42:57;5.4;;;5;;
17949;SDS011;9100;48.700;9.316;2023-01-28T01:43:57;5.4;;;5;;
17949;SDS011;9100;48.700;9.316;2023-01-28T01:44:58;5.4;;;5;;
17949;SDS011;9100;48.700;9.316;2023-01-28T01:45:35;5.8;;;5.3;;
17949;SDS011;9100;48.700;9.316;2023-01-28T01:45:58;5.8;;;5.3;;
17949;SDS011;9100;48.700;9.316;2023-01-28T01:46:57;5.8;;;5.3;;
17949;SDS011;9100;48.700;9.316;2023-01-28T01:47:58;5.8;;;5.3;;
17949;SDS011;9100;48.700;9.316;2023-01-28T01:48:57;5.8;;;5.3;;
17949;SDS011;9100;48.700;9.316;2023-01-28T01:49:57;5.8;;;5.3;;
17949;SDS011;9100;48.700;9.316;2023-01-28T01:50:35;5.4;;;5;;
17949;SDS011;9100;48.700;9.316;2023-01-28T01:50:59;5.4;;;5;;
17949;SDS011;9100;48.700;9.316;2023-01-28T01:51:57;5.4;;;5;;
17949;SDS011;9100;48.700;9.316;2023-01-28T01:52:59;5.4;;;5;;
17949;SDS011;9100;48.700;9.316;2023-01-28T01:53:58;5.4;;;5;;
17949;SDS011;9100;48.700;9.316;2023-01-28T01:54:57;5.4;;;5;;
17949;SDS011;9100;48.700;9.316;2023-01-28T01:55:34;4.3;;;4;;
17949;SDS011;9100;48.700;9.316;2023-01-28T01:55:57;4.3;;;4;;
17949;SDS011;9100;48.700;9.316;2023-01-28T01:56:58;4.3;;;4;;
17949;SDS011;9100;48.700;9.316;2023-01-28T01:57:59;4.3;;;4;;
17949;SDS011;9100;48.700;9.316;2023-01-28T01:58:58;4.3;;;4;;
17949;SDS011;9100;48.700;9.316;2023-01-28T01:59:57;4.3;;;4;;
17949;SDS011;9100;48.700;9.316;2023-01-28T02:00:34;5.9;;;5.3;;
17949;SDS011;9100;48.700;9.316;2023-01-28T02:00:57;5.9;;;5.3;;
17949;SDS011;9100;48.700;9.316;2023-01-28T02:01:58;5.9;;;5.3;;
17949;SDS011;9100;48.700;9.316;2023-01-28T02:02:57;5.9;;;5.3;;
17949;SDS011;9100;48.700;9.316;2023-01-28T02:04:00;5.9;;;5.3;;
17949;SDS011;9100;48.700;9.316;2023-01-28T02:04:57;5.9;;;5.3;;
17949;SDS011;9100;48.700;9.316;2023-01-28T02:05:34;6.1;;;5.1;;
17949;SDS011;9100;48.700;9.316;2023-01-28T02:05:57;6.1;;;5.1;;
17949;SDS011;9100;48.700;9.316;2023-01-28T02:06:57;6.1;;;5.1;;
17949;SDS011;9100;48.700;9.316;2023-01-28T02:07:57;6.1;;;5.1;;
17949;SDS011;9100;48.700;9.316;2023-01-28T02:08:57;6.1;;;5.1;;
17949;SDS011;9100;48.700;9.316;2023-01-28T02:09:58;6.1;;;5.1;;
17949;SDS011;9100;48.700;9.316;2023-01-28T02:10:34;5.6;;;4.6;;
17949;SDS011;9100;48.700;9.316;2023-01-28T02:10:57;5.6;;;4.6;;
17949;SDS011;9100;48.700;9.316;2023-01-28T02:11:57;5.6;;;4.6;;
17949;SDS011;9100;48.700;9.316;2023-01-28T02:12:57;5.6;;;4.6;;
17949;SDS011;9100;48.700;9.316;2023-01-28T02:13:59;5.6;;;4.6;;
17949;SDS011;9100;48.700;9.316;2023-01-28T02:14:58;5.6;;;4.6;;
17949;SDS011;9100;48.700;9.316;2023-01-28T02:15:35;5.4;;;4.8;;
17949;SDS011;9100;48.700;9.316;2023-01-28T02:15:57;5.4;;;4.8;;
17949;SDS011;9100;48.700;9.316;2023-01-28T02:16:57;5.4;;;4.8;;
17949;SDS011;9100;48.700;9.316;2023-01-28T02:17:57;5.4;;;4.8;;
17949;SDS011;9100;48.700;9.316;2023-01-28T02:18:57;5.4;;;4.8;;
17949;SDS011;9100;48.700;9.316;2023-01-28T02:19:57;5.4;;;4.8;;
17949;SDS011;9100;48.700;9.316;2023-01-28T02:20:36;5.3;;;4.9;;
17949;SDS011;9100;48.700;9.316;2023-01-28T02:21:03;5.3;;;4.9;;
17949;SDS011;9100;48.700;9.316;2023-01-28T02:22:00;5.3;;;4.9;;
17949;SDS011;9100;48.700;9.316;2023-01-28T02:23:03;5.3;;;4.9;;
17949;SDS011;9100;48.700;9.316;2023-01-28T02:24:02;5.3;;;4.9;;
17949;SDS011;9100;48.700;9.316;2023-01-28T02:25:02;5.3;;;4.9;;
17949;SDS011;9100;48.700;9.316;2023-01-28T02:25:40;5.5;;;5;;
17949;SDS011;9100;48.700;9.316;2023-01-28T02:26:04;5.5;;;5;;
17949;SDS011;9100;48.700;9.316;2023-01-28T02:27:02;5.5;;;5;;
17949;SDS011;9100;48.700;9.316;2023-01-28T02:28:00;5.5;;;5;;
17949;SDS011;9100;48.700;9.316;2023-01-28T02:28:58;5.5;;;5;;
17949;SDS011;9100;48.700;9.316;2023-01-28T02:29:57;5.5;;;5;;
17949;SDS011;9100;48.700;9.316;2023-01-28T02:30:35;5.7;;;5.2;;
17949;SDS011;9100;48.700;9.316;2023-01-28T02:30:57;5.7;;;5.2;;
17949;SDS011;9100;48.700;9.316;2023-01-28T02:31:57;5.7;;;5.2;;
17949;SDS011;9100;48.700;9.316;2023-01-28T02:32:58;5.7;;;5.2;;
17949;SDS011;9100;48.700;9.316;2023-01-28T02:33:58;5.7;;;5.2;;
17949;SDS011;9100;48.700;9.316;2023-01-28T02:34:58;5.7;;;5.2;;
17949;SDS011;9100;48.700;9.316;2023-01-28T02:35:34;5;;;4.6;;
17949;SDS011;9100;48.700;9.316;2023-01-28T02:35:58;5;;;4.6;;
17949;SDS011;9100;48.700;9.316;2023-01-28T02:36:58;5;;;4.6;;
17949;SDS011;9100;48.700;9.316;2023-01-28T02:37:58;5;;;4.6;;
17949;SDS011;9100;48.700;9.316;2023-01-28T02:38:57;5;;;4.6;;
17949;SDS011;9100;48.700;9.316;2023-01-28T02:39:58;5;;;4.6;;
17949;SDS011;9100;48.700;9.316;2023-01-28T02:40:35;5.4;;;4.8;;
17949;SDS011;9100;48.700;9.316;2023-01-28T02:40:59;5.4;;;4.8;;
17949;SDS011;9100;48.700;9.316;2023-01-28T02:42:00;5.4;;;4.8;;
17949;SDS011;9100;48.700;9.316;2023-01-28T02:42:57;5.4;;;4.8;;
17949;SDS011;9100;48.700;9.316;2023-01-28T02:44:00;5.4;;;4.8;;
17949;SDS011;9100;48.700;9.316;2023-01-28T02:44:58;5.4;;;4.8;;
17949;SDS011;9100;48.700;9.316;2023-01-28T02:45:34;6.1;;;4.5;;
17949;SDS011;9100;48.700;9.316;2023-01-28T02:45:57;6.1;;;4.5;;
17949;SDS011;9100;48.700;9.316;2023-01-28T02:46:57;6.1;;;4.5;;
17949;SDS011;9100;48.700;9.316;2023-01-28T02:47:57;6.1;;;4.5;;
17949;SDS011;9100;48.700;9.316;2023-01-28T02:48:59;6.1;;;4.5;;
17949;SDS011;9100;48.700;9.316;2023-01-28T02:49:58;6.1;;;4.5;;
17949;SDS011;9100;48.700;9.316;2023-01-28T02:50:36;5.9;;;4.8;;
17949;SDS011;9100;48.700;9.316;2023-01-28T02:50:58;5.9;;;4.8;;
17949;SDS011;9100;48.700;9.316;2023-01-28T02:52:01;5.9;;;4.8;;
17949;SDS011;9100;48.700;9.316;2023-01-28T02:53:00;5.9;;;4.8;;
17949;SDS011;9100;48.700;9.316;2023-01-28T02:53:58;5.9;;;4.8;;
17949;SDS011;9100;48.700;9.316;2023-01-28T02:54:58;5.9;;;4.8;;
17949;SDS011;9100;48.700;9.316;2023-01-28T02:55:37;5.1;;;4.7;;
17949;SDS011;9100;48.700;9.316;2023-01-28T02:55:59;5.1;;;4.7;;
17949;SDS011;9100;48.700;9.316;2023-01-28T02:56:59;5.1;;;4.7;;
17949;SDS011;9100;48.700;9.316;2023-01-28T02:57:58;5.1;;;4.7;;
17949;SDS011;9100;48.700;9.316;2023-01-28T02:58:58;5.1;;;4.7;;
17949;SDS011;9100;48.700;9.316;2023-01-28T03:00:00;5.1;;;4.7;;
17949;SDS011;9100;48.700;9.316;2023-01-28T03:00:38;5.1;;;4.7;;
17949;SDS011;9100;48.700;9.316;2023-01-28T03:00:59;5.1;;;4.7;;
17949;SDS011;9100;48.700;9.316;2023-01-28T03:01:59;5.1;;;4.7;;
17949;SDS011;9100;48.700;9.316;2023-01-28T03:02:59;5.1;;;4.7;;
17949;SDS011;9100;48.700;9.316;2023-01-28T03:03:58;5.1;;;4.7;;
17949;SDS011;9100;48.700;9.316;2023-01-28T03:04:58;5.1;;;4.7;;
17949;SDS011;9100;48.700;9.316;2023-01-28T03:05:35;5.4;;;5;;
17949;SDS011;9100;48.700;9.316;2023-01-28T03:05:58;5.4;;;5;;
17949;SDS011;9100;48.700;9.316;2023-01-28T03:06:59;5.4;;;5;;
17949;SDS011;9100;48.700;9.316;2023-01-28T03:07:57;5.4;;;5;;
17949;SDS011;9100;48.700;9.316;2023-01-28T03:08:57;5.4;;;5;;
17949;SDS011;9100;48.700;9.316;2023-01-28T03:09:57;5.4;;;5;;
17949;SDS011;9100;48.700;9.316;2023-01-28T03:10:35;5.9;;;5.3;;
17949;SDS011;9100;48.700;9.316;2023-01-28T03:10:57;5.9;;;5.3;;
17949;SDS011;9100;48.700;9.316;2023-01-28T03:11:58;5.9;;;5.3;;
17949;SDS011;9100;48.700;9.316;2023-01-28T03:12:57;5.9;;;5.3;;
17949;SDS011;9100;48.700;9.316;2023-01-28T03:13:58;5.9;;;5.3;;
17949;SDS011;9100;48.700;9.316;2023-01-28T03:14:58;5.9;;;5.3;;
17949;SDS011;9100;48.700;9.316;2023-01-28T03:15:36;6.6;;;5;;
17949;SDS011;9100;48.700;9.316;2023-01-28T03:15:57;6.6;;;5;;
17949;SDS011;9100;48.700;9.316;2023-01-28T03:16:58;6.6;;;5;;
17949;SDS011;9100;48.700;9.316;2023-01-28T03:17:57;6.6;;;5;;
17949;SDS011;9100;48.700;9.316;2023-01-28T03:18:57;6.6;;;5;;
17949;SDS011;9100;48.700;9.316;2023-01-28T03:19:57;6.6;;;5;;
17949;SDS011;9100;48.700;9.316;2023-01-28T03:20:34;5.1;;;4.7;;
17949;SDS011;9100;48.700;9.316;2023-01-28T03:20:59;5.1;;;4.7;;
17949;SDS011;9100;48.700;9.316;2023-01-28T03:21:58;5.1;;;4.7;;
17949;SDS011;9100;48.700;9.316;2023-01-28T03:23:00;5.1;;;4.7;;
17949;SDS011;9100;48.700;9.316;2023-01-28T03:23:58;5.1;;;4.7;;
17949;SDS011;9100;48.700;9.316;2023-01-28T03:24:57;5.1;;;4.7;;
17949;SDS011;9100;48.700;9.316;2023-01-28T03:25:34;4.6;;;4.3;;
17949;SDS011;9100;48.700;9.316;2023-01-28T03:25:58;4.6;;;4.3;;
17949;SDS011;9100;48.700;9.316;2023-01-28T03:27:00;4.6;;;4.3;;
17949;SDS011;9100;48.700;9.316;2023-01-28T03:27:58;4.6;;;4.3;;
17949;SDS011;9100;48.700;9.316;2023-01-28T03:28:58;4.6;;;4.3;;
17949;SDS011;9100;48.700;9.316;2023-01-28T03:29:57;4.6;;;4.3;;
17949;SDS011;9100;48.700;9.316;2023-01-28T03:30:35;4.7;;;4.3;;
17949;SDS011;9100;48.700;9.316;2023-01-28T03:30:58;4.7;;;4.3;;
17949;SDS011;9100;48.700;9.316;2023-01-28T03:31:57;4.7;;;4.3;;
17949;SDS011;9100;48.700;9.316;2023-01-28T03:32:58;4.7;;;4.3;;
17949;SDS011;9100;48.700;9.316;2023-01-28T03:33:58;4.7;;;4.3;;
17949;SDS011;9100;48.700;9.316;2023-01-28T03:34:57;4.7;;;4.3;;
17949;SDS011;9100;48.700;9.316;2023-01-28T03:35:34;5.2;;;4.5;;
17949;SDS011;9100;48.700;9.316;2023-01-28T03:35:57;5.2;;;4.5;;
17949;SDS011;9100;48.700;9.316;2023-01-28T03:36:57;5.2;;;4.5;;
17949;SDS011;9100;48.700;9.316;2023-01-28T03:37:57;5.2;;;4.5;;
17949;SDS011;9100;48.700;9.316;2023-01-28T03:38:57;5.2;;;4.5;;
17949;SDS011;9100;48.700;9.316;2023-01-28T03:40:00;5.2;;;4.5;;
17949;SDS011;9100;48.700;9.316;2023-01-28T03:40:34;6.2;;;5.6;;
17949;SDS011;9100;48.700;9.316;2023-01-28T03:40:59;6.2;;;5.6;;
17949;SDS011;9100;48.700;9.316;2023-01-28T03:41:57;6.2;;;5.6;;
17949;SDS011;9100;48.700;9.316;2023-01-28T03:42:57;6.2;;;5.6;;
17949;SDS011;9100;48.700;9.316;2023-01-28T03:43:57;6.2;;;5.6;;
17949;SDS011;9100;48.700;9.316;2023-01-28T03:44:57;6.2;;;5.6;;
17949;SDS011;9100;48.700;9.316;2023-01-28T03:45:34;5.5;;;5;;
17949;SDS011;9100;48.700;9.316;2023-01-28T03:45:57;5.5;;;5;;
17949;SDS011;9100;48.700;9.316;2023-01-28T03:46:57;5.5;;;5;;
17949;SDS011;9100;48.700;9.316;2023-01-28T03:47:57;5.5;;;5;;
17949;SDS011;9100;48.700;9.316;2023-01-28T03:48:57;5.5;;;5;;
17949;SDS011;9100;48.700;9.316;2023-01-28T03:49:57;5.5;;;5;;
17949;SDS011;9100;48.700;9.316;2023-01-28T03:50:34;5;;;4.6;;
17949;SDS011;9100;48.700;9.316;2023-01-28T03:50:57;5;;;4.6;;
17949;SDS011;9100;48.700;9.316;2023-01-28T03:51:57;5;;;4.6;;
17949;SDS011;9100;48.700;9.316;2023-01-28T03:52:57;5;;;4.6;;
17949;SDS011;9100;48.700;9.316;2023-01-28T03:53:57;5;;;4.6;;
17949;SDS011;9100;48.700;9.316;2023-01-28T03:54:57;5;;;4.6;;
17949;SDS011;9100;48.700;9.316;2023-01-28T03:55:34;6;;;5.4;;
17949;SDS011;9100;48.700;9.316;2023-01-28T03:55:57;6;;;5.4;;
17949;SDS011;9100;48.700;9.316;2023-01-28T03:56:57;6;;;5.4;;
17949;SDS011;9100;48.700;9.316;2023-01-28T03:57:57;6;;;5.4;;
17949;SDS011;9100;48.700;9.316;2023-01-28T03:58:57;6;;;5.4;;
17949;SDS011;9100;48.700;9.316;2023-01-28T03:59:57;6;;;5.4;;
17949;SDS011;9100;48.700;9.316;2023-01-28T04:00:35;7.2;;;5.6;;
17949;SDS011;9100;48.700;9.316;2023-01-28T04:00:58;7.2;;;5.6;;
17949;SDS011;9100;48.700;9.316;2023-01-28T04:01:57;7.2;;;5.6;;
17949;SDS011;9100;48.700;9.316;2023-01-28T04:02:57;7.2;;;5.6;;
17949;SDS011;9100;48.700;9.316;2023-01-28T04:03:57;7.2;;;5.6;;
17949;SDS011;9100;48.700;9.316;2023-01-28T04:04:57;7.2;;;5.6;;
17949;SDS011;9100;48.700;9.316;2023-01-28T04:05:34;6.1;;;5.3;;
17949;SDS011;9100;48.700;9.316;2023-01-28T04:05:58;6.1;;;5.3;;
17949;SDS011;9100;48.700;9.316;2023-01-28T04:06:57;6.1;;;5.3;;
17949;SDS011;9100;48.700;9.316;2023-01-28T04:07:57;6.1;;;5.3;;
17949;SDS011;9100;48.700;9.316;2023-01-28T04:08:57;6.1;;;5.3;;
17949;SDS011;9100;48.700;9.316;2023-01-28T04:09:58;6.1;;;5.3;;
17949;SDS011;9100;48.700;9.316;2023-01-28T04:10:34;6.9;;;5.9;;
17949;SDS011;9100;48.700;9.316;2023-01-28T04:10:57;6.9;;;5.9;;
17949;SDS011;9100;48.700;9.316;2023-01-28T04:11:57;6.9;;;5.9;;
17949;SDS011;9100;48.700;9.316;2023-01-28T04:12:57;6.9;;;5.9;;
17949;SDS011;9100;48.700;9.316;2023-01-28T04:13:57;6.9;;;5.9;;
17949;SDS011;9100;48.700;9.316;2023-01-28T04:14:58;6.9;;;5.9;;
17949;SDS011;9100;48.700;9.316;2023-01-28T04:15:34;7;;;6.1;;
17949;SDS011;9100;48.700;9.316;2023-01-28T04:15:58;7;;;6.1;;
17949;SDS011;9100;48.700;9.316;2023-01-28T04:16:58;7;;;6.1;;
17949;SDS011;9100;48.700;9.316;2023-01-28T04:17:57;7;;;6.1;;
17949;SDS011;9100;48.700;9.316;2023-01-28T04:18:57;7;;;6.1;;
17949;SDS011;9100;48.700;9.316;2023-01-28T04:19:57;7;;;6.1;;
17949;SDS011;9100;48.700;9.316;2023-01-28T04:20:34;5.1;;;4.6;;
17949;SDS011;9100;48.700;9.316;2023-01-28T04:20:58;5.1;;;4.6;;
17949;SDS011;9100;48.700;9.316;2023-01-28T04:21:57;5.1;;;4.6;;
17949;SDS011;9100;48.700;9.316;2023-01-28T04:22:57;5.1;;;4.6;;
17949;SDS011;9100;48.700;9.316;2023-01-28T04:23:57;5.1;;;4.6;;
17949;SDS011;9100;48.700;9.316;2023-01-28T04:24:57;5.1;;;4.6;;
17949;SDS011;9100;48.700;9.316;2023-01-28T04:25:35;5.7;;;5.2;;
17949;SDS011;9100;48.700;9.316;2023-01-28T04:25:57;5.7;;;5.2;;
17949;SDS011;9100;48.700;9.316;2023-01-28T04:26:57;5.7;;;5.2;;
17949;SDS011;9100;48.700;9.316;2023-01-28T04:27:57;5.7;;;5.2;;
17949;SDS011;9100;48.700;9.316;2023-01-28T04:28:57;5.7;;;5.2;;
17949;SDS011;9100;48.700;9.316;2023-01-28T04:29:57;5.7;;;5.2;;
17949;SDS011;9100;48.700;9.316;2023-01-28T04:30:35;6.3;;;5.7;;
17949;SDS011;9100;48.700;9.316;2023-01-28T04:30:57;6.3;;;5.7;;
17949;SDS011;9100;48.700;9.316;2023-01-28T04:31:57;6.3;;;5.7;;
17949;SDS011;9100;48.700;9.316;2023-01-28T04:32:57;6.3;;;5.7;;
17949;SDS011;9100;48.700;9.316;2023-01-28T04:33:57;6.3;;;5.7;;
17949;SDS011;9100;48.700;9.316;2023-01-28T04:34:57;6.3;;;5.7;;
17949;SDS011;9100;48.700;9.316;2023-01-28T04:35:34;5.2;;;4.7;;
17949;SDS011;9100;48.700;9.316;2023-01-28T04:35:57;5.2;;;4.7;;
17949;SDS011;9100;48.700;9.316;2023-01-28T04:36:57;5.2;;;4.7;;
17949;SDS011;9100;48.700;9.316;2023-01-28T04:37:57;5.2;;;4.7;;
17949;SDS011;9100;48.700;9.316;2023-01-28T04:38:57;5.2;;;4.7;;
17949;SDS011;9100;48.700;9.316;2023-01-28T04:39:57;5.2;;;4.7;;
17949;SDS011;9100;48.700;9.316;2023-01-28T04:40:34;5.7;;;5.2;;
17949;SDS011;9100;48.700;9.316;2023-01-28T04:40:57;5.7;;;5.2;;
17949;SDS011;9100;48.700;9.316;2023-01-28T04:41:57;5.7;;;5.2;;
17949;SDS011;9100;48.700;9.316;2023-01-28T04:42:57;5.7;;;5.2;;
17949;SDS011;9100;48.700;9.316;2023-01-28T04:43:57;5.7;;;5.2;;
17949;SDS011;9100;48.700;9.316;2023-01-28T04:44:57;5.7;;;5.2;;
17949;SDS011;9100;48.700;9.316;2023-01-28T04:45:34;5.9;;;5.4;;
17949;SDS011;9100;48.700;9.316;2023-01-28T04:45:57;5.9;;;5.4;;
17949;SDS011;9100;48.700;9.316;2023-01-28T04:46:57;5.9;;;5.4;;
17949;SDS011;9100;48.700;9.316;2023-01-28T04:47:57;5.9;;;5.4;;
17949;SDS011;9100;48.700;9.316;2023-01-28T04:48:57;5.9;;;5.4;;
17949;SDS011;9100;48.700;9.316;2023-01-28T04:49:57;5.9;;;5.4;;
17949;SDS011;9100;48.700;9.316;2023-01-28T04:50:34;6.1;;;5.6;;
17949;SDS011;9100;48.700;9.316;2023-01-28T04:50:58;6.1;;;5.6;;
17949;SDS011;9100;48.700;9.316;2023-01-28T04:51:58;6.1;;;5.6;;
17949;SDS011;9100;48.700;9.316;2023-01-28T04:52:57;6.1;;;5.6;;
17949;SDS011;9100;48.700;9.316;2023-01-28T04:53:57;6.1;;;5.6;;
17949;SDS011;9100;48.700;9.316;2023-01-28T04:54:57;6.1;;;5.6;;
17949;SDS011;9100;48.700;9.316;2023-01-28T04:55:34;5.7;;;5;;
17949;SDS011;9100;48.700;9.316;2023-01-28T04:55:57;5.7;;;5;;
17949;SDS011;9100;48.700;9.316;2023-01-28T04:56:57;5.7;;;5;;
17949;SDS011;9100;48.700;9.316;2023-01-28T04:57:57;5.7;;;5;;
17949;SDS011;9100;48.700;9.316;2023-01-28T04:58:57;5.7;;;5;;
17949;SDS011;9100;48.700;9.316;2023-01-28T04:59:57;5.7;;;5;;
17949;SDS011;9100;48.700;9.316;2023-01-28T05:00:34;6.2;;;5.7;;
17949;SDS011;9100;48.700;9.316;2023-01-28T05:00:58;6.2;;;5.7;;
17949;SDS011;9100;48.700;9.316;2023-01-28T05:01:57;6.2;;;5.7;;
17949;SDS011;9100;48.700;9.316;2023-01-28T05:02:57;6.2;;;5.7;;
17949;SDS011;9100;48.700;9.316;2023-01-28T05:03:57;6.2;;;5.7;;
17949;SDS011;9100;48.700;9.316;2023-01-28T05:04:58;6.2;;;5.7;;
17949;SDS011;9100;48.700;9.316;2023-01-28T05:05:35;6.1;;;5.5;;
17949;SDS011;9100;48.700;9.316;2023-01-28T05:05:58;6.1;;;5.5;;
17949;SDS011;9100;48.700;9.316;2023-01-28T05:06:58;6.1;;;5.5;;
17949;SDS011;9100;48.700;9.316;2023-01-28T05:07:58;6.1;;;5.5;;
17949;SDS011;9100;48.700;9.316;2023-01-28T05:08:59;6.1;;;5.5;;
17949;SDS011;9100;48.700;9.316;2023-01-28T05:09:57;6.1;;;5.5;;
17949;SDS011;9100;48.700;9.316;2023-01-28T05:10:34;6.7;;;6;;
17949;SDS011;9100;48.700;9.316;2023-01-28T05:10:57;6.7;;;6;;
17949;SDS011;9100;48.700;9.316;2023-01-28T05:11:57;6.7;;;6;;
17949;SDS011;9100;48.700;9.316;2023-01-28T05:12:57;6.7;;;6;;
17949;SDS011;9100;48.700;9.316;2023-01-28T05:13:57;6.7;;;6;;
17949;SDS011;9100;48.700;9.316;2023-01-28T05:14:57;6.7;;;6;;
17949;SDS011;9100;48.700;9.316;2023-01-28T05:15:35;5.9;;;5.3;;
17949;SDS011;9100;48.700;9.316;2023-01-28T05:15:57;5.9;;;5.3;;
17949;SDS011;9100;48.700;9.316;2023-01-28T05:16:57;5.9;;;5.3;;
17949;SDS011;9100;48.700;9.316;2023-01-28T05:17:57;5.9;;;5.3;;